createdAt,value
2022-08-05T00:00:06.328Z,0.79
2022-08-05T00:01:29.948Z,0.94
2022-08-05T00:02:13.666Z,0.94
2022-08-05T00:03:17.864Z,1.08
2022-08-05T00:04:15.594Z,1.26
2022-08-05T00:06:05.292Z,1.26
2022-08-05T00:06:33.483Z,1.14
2022-08-05T00:08:01.535Z,1.04
2022-08-05T00:08:36.880Z,0.87
2022-08-05T00:09:19.628Z,1.26
2022-08-05T00:10:11.244Z,0.93
2022-08-05T00:11:34.933Z,0.63
2022-08-05T00:12:15.304Z,0.63
2022-08-05T00:13:20.832Z,1.09
2022-08-05T00:14:18.940Z,1.09
2022-08-05T00:15:58.339Z,1.27
2022-08-05T00:16:54.095Z,1.27
2022-08-05T00:17:21.437Z,1.21
2022-08-05T00:18:24.569Z,1.21
2022-08-05T00:19:12.622Z,1.86
2022-08-05T00:20:13.347Z,0.91
2022-08-05T00:21:11.471Z,0.91
2022-08-05T00:22:13.568Z,0.82
2022-08-05T00:23:15.182Z,0.91
2022-08-05T00:24:24.478Z,0.91
2022-08-05T00:25:14.921Z,1.21
2022-08-05T00:26:14.578Z,0.75
2022-08-05T00:27:19.079Z,1.11
2022-08-05T00:28:14.779Z,1.11
2022-08-05T00:29:14.163Z,1.15
2022-08-05T00:30:13.732Z,1.18
2022-08-05T00:31:12.986Z,1.18
2022-08-05T00:32:17.375Z,0.97
2022-08-05T00:35:05.974Z,0.81
2022-08-05T00:35:07.011Z,0.83
2022-08-05T00:37:09.514Z,1.29
2022-08-05T00:37:15.653Z,1.29
2022-08-05T00:38:16.842Z,1.38
2022-08-05T00:39:15.649Z,1.02
2022-08-05T00:40:14.507Z,1.02
2022-08-05T00:41:13.739Z,1.34
2022-08-05T00:42:34.269Z,1.49
2022-08-05T00:43:17.327Z,1.49
2022-08-05T00:44:14.262Z,1.12
2022-08-05T00:45:15.770Z,1.12
2022-08-05T00:46:12.596Z,1.16
2022-08-05T00:47:14.141Z,1.04
2022-08-05T00:48:14.969Z,0.96
2022-08-05T00:49:16.663Z,0.94
2022-08-05T00:50:13.175Z,0.82
2022-08-05T00:51:53.943Z,1.64
2022-08-05T00:52:09.814Z,1.01
2022-08-05T00:54:01.598Z,0.92
2022-08-05T00:54:14.276Z,0.72
2022-08-05T00:55:14.901Z,1.04
2022-08-05T00:56:14.122Z,1.04
2022-08-05T00:57:10.715Z,1.15
2022-08-05T00:58:15.632Z,1.11
2022-08-05T00:59:11.583Z,0.95
2022-08-05T01:00:15.410Z,0.99
2022-08-05T01:01:14.911Z,1.28
2022-08-05T01:02:10.873Z,1.28
2022-08-05T01:03:25.142Z,0.85
2022-08-05T01:04:16.154Z,0.85
2022-08-05T01:05:16.800Z,1.06
2022-08-05T01:06:17.601Z,1.12
2022-08-05T01:07:20.219Z,1.43
2022-08-05T01:08:47.189Z,1.18
2022-08-05T01:09:15.638Z,1.18
2022-08-05T01:10:11.278Z,1.24
2022-08-05T01:11:24.419Z,1.66
2022-08-05T01:12:20.787Z,0.78
2022-08-05T01:13:22.212Z,0.78
2022-08-05T01:14:11.720Z,1.28
2022-08-05T01:15:38.377Z,0.89
2022-08-05T01:16:13.407Z,0.86
2022-08-05T01:17:15.972Z,0.86
2022-08-05T01:18:17.759Z,1.41
2022-08-05T01:19:16.446Z,0.95
2022-08-05T01:20:10.590Z,0.95
2022-08-05T01:21:14.105Z,1.14
2022-08-05T01:22:24.035Z,1.14
2022-08-05T01:23:22.841Z,1.05
2022-08-05T01:24:16.523Z,0.97
2022-08-05T01:25:15.709Z,0.97
2022-08-05T01:26:12.070Z,1.38
2022-08-05T01:27:33.017Z,1.29
2022-08-05T01:28:13.848Z,1.29
2022-08-05T01:29:25.007Z,1.39
2022-08-05T01:30:20.958Z,1.39
2022-08-05T01:31:13.604Z,1.39
2022-08-05T01:32:20.732Z,1.08
2022-08-05T01:33:11.459Z,1.08
2022-08-05T01:34:13.131Z,0.71
2022-08-05T01:35:12.917Z,0.95
2022-08-05T01:36:15.914Z,1.05
2022-08-05T01:37:26.690Z,1.05
2022-08-05T01:38:24.978Z,1.16
2022-08-05T01:39:15.307Z,1.16
2022-08-05T01:40:10.559Z,1.16
2022-08-05T01:41:25.642Z,1.29
2022-08-05T01:42:11.877Z,1.29
2022-08-05T01:43:24.321Z,1.18
2022-08-05T01:44:17.400Z,1.18
2022-08-05T01:45:11.779Z,1.12
2022-08-05T01:46:46.326Z,1.12
2022-08-05T01:47:16.138Z,0.98
2022-08-05T01:48:13.172Z,0.98
2022-08-05T01:49:26.510Z,0.69
2022-08-05T01:50:17.937Z,1.31
2022-08-05T01:51:14.474Z,1.31
2022-08-05T01:52:20.226Z,1.21
2022-08-05T01:53:15.858Z,1.21
2022-08-05T01:54:20.025Z,1.21
2022-08-05T01:55:11.604Z,1.42
2022-08-05T01:58:08.760Z,1.07
2022-08-05T01:58:16.195Z,1.12
2022-08-05T01:58:17.757Z,1.12
2022-08-05T01:59:11.369Z,1.12
2022-08-05T02:00:14.716Z,1.15
2022-08-05T02:01:13.397Z,1.25
2022-08-05T02:02:12.945Z,1.25
2022-08-05T02:03:31.710Z,1.25
2022-08-05T02:04:12.501Z,1.66
2022-08-05T02:05:14.342Z,1.21
2022-08-05T02:06:39.842Z,1.78
2022-08-05T02:07:23.805Z,1.18
2022-08-05T02:08:31.512Z,1.11
2022-08-05T02:09:22.868Z,1.02
2022-08-05T02:10:10.046Z,0.72
2022-08-05T02:11:13.967Z,0.72
2022-08-05T02:12:13.325Z,0.68
2022-08-05T02:13:18.452Z,0.82
2022-08-05T02:14:14.908Z,1.23
2022-08-05T02:15:15.601Z,1.23
2022-08-05T02:16:18.437Z,0.91
2022-08-05T02:17:05.471Z,1.23
2022-08-05T02:18:36.574Z,1.23
2022-08-05T02:19:13.300Z,0.91
2022-08-05T02:20:15.381Z,0.91
2022-08-05T02:21:17.424Z,1.38
2022-08-05T02:22:27.468Z,1.07
2022-08-05T02:23:13.513Z,1.07
2022-08-05T02:24:23.040Z,0.98
2022-08-05T02:25:14.844Z,1.41
2022-08-05T02:26:19.231Z,0.93
2022-08-05T02:27:16.196Z,0.93
2022-08-05T02:28:11.263Z,1.32
2022-08-05T02:29:24.216Z,0.78
2022-08-05T02:30:13.704Z,0.78
2022-08-05T02:31:16.965Z,1.04
2022-08-05T02:32:29.299Z,1.04
2022-08-05T02:33:35.693Z,1.44
2022-08-05T02:34:12.230Z,1.55
2022-08-05T02:35:19.076Z,1.55
2022-08-05T02:36:17.604Z,0.91
2022-08-05T02:37:11.194Z,0.91
2022-08-05T02:38:21.263Z,1.85
2022-08-05T02:39:15.916Z,1.29
2022-08-05T02:40:15.095Z,1.48
2022-08-05T02:41:19.357Z,1.13
2022-08-05T02:42:30.854Z,1.13
2022-08-05T02:43:17.400Z,1.25
2022-08-05T02:44:15.115Z,1.25
2022-08-05T02:45:12.389Z,1.47
2022-08-05T02:46:18.489Z,1.47
2022-08-05T02:47:06.290Z,1.23
2022-08-05T02:48:15.033Z,1.23
2022-08-05T02:49:13.303Z,1.04
2022-08-05T02:50:13.917Z,1.01
2022-08-05T02:51:11.605Z,1.01
2022-08-05T02:52:26.080Z,1.48
2022-08-05T02:53:15.973Z,1.48
2022-08-05T02:54:41.116Z,1.08
2022-08-05T02:55:14.310Z,1.08
2022-08-05T02:56:18.733Z,1.42
2022-08-05T02:58:15.419Z,1.45
2022-08-05T02:58:22.790Z,1.45
2022-08-05T02:59:11.008Z,1.45
2022-08-05T03:00:11.120Z,1.35
2022-08-05T03:01:05.330Z,1.23
2022-08-05T03:02:06.977Z,1.23
2022-08-05T03:03:13.831Z,1.12
2022-08-05T03:04:16.383Z,1.34
2022-08-05T03:05:15.803Z,1.34
2022-08-05T03:07:00.320Z,1.07
2022-08-05T03:08:01.546Z,1.07
2022-08-05T03:08:15.595Z,1.11
2022-08-05T03:09:27.262Z,1.1
2022-08-05T03:10:11.481Z,1.1
2022-08-05T03:11:58.278Z,1.05
2022-08-05T03:12:11.806Z,1.05
2022-08-05T03:13:18.824Z,1.56
2022-08-05T03:14:15.449Z,1.56
2022-08-05T03:15:18.443Z,1.72
2022-08-05T03:16:17.895Z,1.72
2022-08-05T03:17:11.113Z,1.1
2022-08-05T03:18:24.785Z,1.33
2022-08-05T03:19:17.299Z,1.23
2022-08-05T03:20:18.037Z,1.31
2022-08-05T03:21:16.663Z,1.31
2022-08-05T03:22:32.107Z,1.62
2022-08-05T03:23:12.491Z,1.14
2022-08-05T03:24:15.453Z,1.14
2022-08-05T03:26:05.189Z,0.83
2022-08-05T03:26:34.189Z,1.31
2022-08-05T03:27:10.411Z,1.31
2022-08-05T03:28:05.083Z,1.16
2022-08-05T03:29:19.400Z,1.64
2022-08-05T03:30:15.313Z,1.51
2022-08-05T03:31:54.229Z,1.35
2022-08-05T03:32:18.661Z,1.25
2022-08-05T03:33:14.652Z,0.95
2022-08-05T03:34:14.962Z,0.95
2022-08-05T03:35:14.920Z,1.29
2022-08-05T03:36:14.693Z,1.58
2022-08-05T03:37:16.439Z,1.54
2022-08-05T03:38:16.481Z,1.77
2022-08-05T03:39:28.860Z,1.28
2022-08-05T03:40:14.419Z,1.25
2022-08-05T03:41:13.108Z,1.26
2022-08-05T03:42:13.146Z,0.78
2022-08-05T03:44:11.216Z,1.27
2022-08-05T03:44:19.769Z,1.27
2022-08-05T03:45:29.149Z,1.28
2022-08-05T03:46:04.654Z,1.04
2022-08-05T03:47:15.771Z,1.04
2022-08-05T03:48:13.459Z,1.38
2022-08-05T03:49:17.023Z,1.44
2022-08-05T03:50:12.146Z,1.05
2022-08-05T03:54:53.378Z,1.05
2022-08-05T03:55:54.596Z,1.05
2022-08-05T03:56:06.333Z,1.05
2022-08-05T03:56:12.260Z,0.99
2022-08-05T03:56:18.135Z,1.48
2022-08-05T03:56:31.814Z,1.48
2022-08-05T03:57:44.454Z,1.36
2022-08-05T03:58:12.045Z,1.46
2022-08-05T03:59:11.091Z,1.89
2022-08-05T04:00:17.948Z,1.89
2022-08-05T04:01:15.092Z,1.89
2022-08-05T04:02:37.454Z,1.26
2022-08-05T04:03:29.374Z,2.17
2022-08-05T04:04:12.612Z,2.17
2022-08-05T04:05:15.760Z,2.17
2022-08-05T04:06:14.454Z,1.44
2022-08-05T04:07:15.253Z,1.44
2022-08-05T04:08:37.362Z,1.45
2022-08-05T04:09:26.207Z,0.98
2022-08-05T04:10:11.631Z,0.98
2022-08-05T04:11:12.154Z,1.09
2022-08-05T04:12:25.931Z,1.17
2022-08-05T04:13:12.169Z,1.92
2022-08-05T04:14:29.395Z,1.54
2022-08-05T04:15:17.533Z,0.99
2022-08-05T04:16:16.412Z,0.99
2022-08-05T04:17:14.092Z,1.18
2022-08-05T04:18:13.712Z,1.19
2022-08-05T04:19:14.827Z,1.19
2022-08-05T04:20:16.234Z,1.54
2022-08-05T04:21:13.273Z,1.16
2022-08-05T04:22:14.333Z,1.16
2022-08-05T04:23:18.293Z,0.82
2022-08-05T04:24:22.648Z,0.82
2022-08-05T04:25:20.161Z,1.56
2022-08-05T04:26:06.457Z,1.24
2022-08-05T04:27:33.407Z,1.37
2022-08-05T04:28:14.998Z,1.6
2022-08-05T04:29:12.617Z,1.6
2022-08-05T04:30:09.106Z,1.09
2022-08-05T04:31:18.391Z,1.25
2022-08-05T04:32:11.029Z,1.71
2022-08-05T04:33:11.578Z,1.5
2022-08-05T04:34:36.683Z,1.5
2022-08-05T04:35:21.836Z,1.7
2022-08-05T04:36:50.335Z,1.46
2022-08-05T04:37:05.397Z,1.46
2022-08-05T04:38:17.748Z,0.96
2022-08-05T04:39:20.783Z,0.96
2022-08-05T04:40:21.607Z,0.79
2022-08-05T04:41:15.717Z,1.29
2022-08-05T04:42:15.751Z,1.29
2022-08-05T04:43:21.860Z,1.35
2022-08-05T04:44:12.115Z,1.35
2022-08-05T04:45:23.122Z,1.18
2022-08-05T04:46:11.809Z,1.14
2022-08-05T04:47:13.637Z,1.65
2022-08-05T04:48:28.975Z,1.12
2022-08-05T04:49:16.636Z,1.52
2022-08-05T04:50:13.619Z,1.22
2022-08-05T04:51:13.774Z,2.22
2022-08-05T04:52:20.843Z,1.38
2022-08-05T04:53:10.858Z,1.38
2022-08-05T04:54:04.551Z,1.38
2022-08-05T04:55:17.584Z,1.01
2022-08-05T04:56:37.489Z,1.24
2022-08-05T04:57:11.150Z,0.9
2022-08-05T04:58:14.548Z,0.96
2022-08-05T04:59:41.220Z,1.2
2022-08-05T05:00:16.069Z,1.2
2022-08-05T05:01:13.652Z,1.35
2022-08-05T05:02:41.619Z,1.35
2022-08-05T05:03:13.558Z,1.56
2022-08-05T05:04:16.310Z,1.11
2022-08-05T05:05:29.330Z,2.32
2022-08-05T05:06:49.198Z,2.32
2022-08-05T05:07:29.589Z,2.01
2022-08-05T05:08:30.357Z,1.11
2022-08-05T05:09:19.754Z,1.11
2022-08-05T05:10:12.417Z,2.6
2022-08-05T05:11:17.427Z,2.6
2022-08-05T05:12:13.631Z,1.91
2022-08-05T05:13:15.461Z,1.91
2022-08-05T05:14:32.117Z,1.34
2022-08-05T05:15:06.153Z,1.34
2022-08-05T05:16:21.825Z,1.34
2022-08-05T05:17:12.717Z,1.12
2022-08-05T05:18:14.198Z,1.12
2022-08-05T05:19:23.514Z,1.36
2022-08-05T05:20:10.767Z,1.36
2022-08-05T05:21:14.024Z,1.12
2022-08-05T05:22:26.241Z,1.17
2022-08-05T05:23:22.131Z,1.17
2022-08-05T05:24:11.168Z,1.07
2022-08-05T05:25:19.369Z,1.43
2022-08-05T05:26:14.035Z,1.43
2022-08-05T05:27:19.334Z,1.54
2022-08-05T05:28:11.422Z,1.54
2022-08-05T05:29:16.895Z,1.29
2022-08-05T05:30:07.111Z,1.29
2022-08-05T05:31:15.269Z,1.05
2022-08-05T05:32:20.501Z,2.17
2022-08-05T05:33:23.199Z,1.43
2022-08-05T05:34:20.044Z,1.22
2022-08-05T05:35:21.918Z,1.22
2022-08-05T05:36:03.978Z,1.35
2022-08-05T05:37:15.546Z,1.8
2022-08-05T05:38:22.332Z,1.06
2022-08-05T05:39:21.179Z,1.33
2022-08-05T05:40:09.668Z,1.33
2022-08-05T05:41:20.533Z,1.52
2022-08-05T05:42:15.724Z,1.52
2022-08-05T05:43:12.181Z,1.18
2022-08-05T05:44:42.899Z,1.18
2022-08-05T05:45:16.296Z,2.22
2022-08-05T05:46:20.232Z,2.22
2022-08-05T05:47:30.141Z,1.66
2022-08-05T05:48:12.388Z,1.71
2022-08-05T05:49:24.964Z,1.96
2022-08-05T05:50:19.722Z,2.39
2022-08-05T05:51:17.647Z,1.62
2022-08-05T05:52:32.769Z,1.12
2022-08-05T05:53:23.916Z,1.12
2022-08-05T05:54:14.124Z,1.84
2022-08-05T05:55:13.178Z,1.61
2022-08-05T05:56:14.639Z,1.85
2022-08-05T05:57:19.028Z,1.72
2022-08-05T05:58:11.260Z,1.72
2022-08-05T05:59:22.334Z,1.57
2022-08-05T06:00:06.316Z,1.61
2022-08-05T06:01:15.507Z,1.96
2022-08-05T06:02:12.485Z,1.96
2022-08-05T06:04:01.527Z,1.99
2022-08-05T06:04:16.701Z,2.2
2022-08-05T06:05:18.575Z,1.59
2022-08-05T06:06:11.068Z,1.59
2022-08-05T06:07:17.939Z,2.09
2022-08-05T06:08:14.353Z,1.48
2022-08-05T06:10:04.638Z,1.5
2022-08-05T06:10:12.058Z,1.5
2022-08-05T06:11:16.437Z,2.16
2022-08-05T06:12:14.186Z,1.81
2022-08-05T06:13:14.175Z,1.81
2022-08-05T06:14:10.950Z,1.83
2022-08-05T06:15:12.379Z,2.32
2022-08-05T06:16:37.014Z,1.89
2022-08-05T06:17:55.182Z,1.89
2022-08-05T06:18:12.111Z,1.68
2022-08-05T06:19:35.642Z,2.11
2022-08-05T06:20:23.593Z,1.8
2022-08-05T06:21:20.616Z,1.8
2022-08-05T06:22:13.790Z,1.58
2022-08-05T06:23:10.243Z,1.58
2022-08-05T06:24:16.866Z,1.74
2022-08-05T06:26:13.109Z,1.74
2022-08-05T06:26:24.174Z,1.72
2022-08-05T06:28:21.492Z,2.58
2022-08-05T06:28:23.592Z,2.58
2022-08-05T06:30:04.096Z,1.32
2022-08-05T06:30:23.323Z,1.79
2022-08-05T06:31:21.788Z,1.51
2022-08-05T06:32:28.765Z,1.51
2022-08-05T06:33:33.064Z,1.51
2022-08-05T06:34:13.106Z,1.41
2022-08-05T06:36:07.023Z,1.41
2022-08-05T06:36:18.285Z,1.41
2022-08-05T06:37:10.494Z,1.76
2022-08-05T06:38:14.177Z,1.76
2022-08-05T06:39:14.915Z,1.79
2022-08-05T06:40:12.455Z,1.55
2022-08-05T06:41:13.786Z,1.55
2022-08-05T06:42:15.546Z,2.17
2022-08-05T06:44:02.461Z,1.53
2022-08-05T06:44:11.976Z,1.72
2022-08-05T06:45:44.251Z,1.72
2022-08-05T06:46:10.987Z,1.72
2022-08-05T06:48:53.311Z,1.41
2022-08-05T06:49:01.759Z,1.41
2022-08-05T06:49:12.188Z,1.41
2022-08-05T06:50:19.423Z,1.58
2022-08-05T06:51:12.140Z,1.44
2022-08-05T06:52:40.597Z,1.93
2022-08-05T06:53:28.110Z,1.93
2022-08-05T06:54:21.332Z,1.55
2022-08-05T06:55:16.848Z,1.55
2022-08-05T06:56:29.043Z,1.55
2022-08-05T06:58:11.859Z,1.64
2022-08-05T06:58:36.943Z,1.48
2022-08-05T06:59:11.936Z,1.48
2022-08-05T07:00:11.911Z,1.81
2022-08-05T07:01:15.491Z,1.81
2022-08-05T07:02:24.932Z,1.57
2022-08-05T07:03:13.820Z,1.62
2022-08-05T07:04:10.746Z,1.62
2022-08-05T07:05:22.301Z,1.82
2022-08-05T07:06:17.418Z,1.32
2022-08-05T07:07:17.147Z,1.32
2022-08-05T07:08:14.277Z,1.77
2022-08-05T07:09:16.045Z,2.09
2022-08-05T07:10:18.651Z,2.09
2022-08-05T07:11:17.740Z,2.09
2022-08-05T07:12:15.567Z,1.31
2022-08-05T07:13:15.961Z,1.46
2022-08-05T07:14:32.260Z,1.87
2022-08-05T07:15:12.344Z,1.87
2022-08-05T07:18:08.162Z,2.09
2022-08-05T07:18:09.670Z,1.8
2022-08-05T07:19:12.451Z,2.09
2022-08-05T07:20:45.328Z,1.68
2022-08-05T07:21:11.107Z,1.68
2022-08-05T07:22:17.931Z,1.54
2022-08-05T07:23:29.472Z,1.54
2022-08-05T07:24:13.440Z,1.65
2022-08-05T07:25:57.140Z,1.6
2022-08-05T07:26:18.384Z,1.99
2022-08-05T07:27:12.691Z,1.99
2022-08-05T07:28:19.475Z,1.12
2022-08-05T07:29:12.118Z,2.11
2022-08-05T07:30:33.272Z,1.55
2022-08-05T07:31:13.531Z,1.55
2022-08-05T07:32:12.349Z,1.7
2022-08-05T07:33:19.060Z,1.58
2022-08-05T07:34:26.285Z,1.58
2022-08-05T07:36:21.903Z,1.8
2022-08-05T07:36:23.772Z,1.48
2022-08-05T07:37:13.877Z,1.71
2022-08-05T07:38:35.856Z,1.71
2022-08-05T07:40:27.181Z,1.71
2022-08-05T07:40:35.000Z,1.57
2022-08-05T07:42:15.857Z,1.76
2022-08-05T07:42:17.211Z,1.76
2022-08-05T07:43:22.779Z,1.43
2022-08-05T07:44:20.443Z,1.64
2022-08-05T07:45:14.547Z,1.88
2022-08-05T07:46:27.401Z,1.74
2022-08-05T07:47:16.873Z,1.74
2022-08-05T07:48:15.469Z,1.35
2022-08-05T07:49:12.610Z,1.98
2022-08-05T07:50:18.712Z,1.98
2022-08-05T07:51:41.272Z,1.98
2022-08-05T07:52:13.136Z,1.91
2022-08-05T07:53:15.433Z,1.64
2022-08-05T07:54:12.725Z,1.64
2022-08-05T07:56:39.650Z,1.58
2022-08-05T07:57:15.096Z,1.54
2022-08-05T07:57:59.079Z,1.54
2022-08-05T07:59:10.948Z,1.89
2022-08-05T08:00:13.853Z,1.62
2022-08-05T08:01:14.585Z,1.62
2022-08-05T08:02:19.410Z,2.46
2022-08-05T08:03:17.596Z,1.39
2022-08-05T08:04:14.443Z,1.81
2022-08-05T08:05:13.592Z,1.59
2022-08-05T08:06:14.567Z,1.38
2022-08-05T08:07:13.985Z,1.38
2022-08-05T08:08:14.591Z,1.17
2022-08-05T08:09:17.840Z,1.88
2022-08-05T08:10:22.583Z,1.79
2022-08-05T08:11:17.949Z,1.79
2022-08-05T08:13:08.114Z,2.08
2022-08-05T08:14:11.148Z,2.08
2022-08-05T08:15:18.062Z,2.21
2022-08-05T08:16:53.574Z,2.21
2022-08-05T08:17:17.804Z,1.46
2022-08-05T08:18:22.977Z,1.22
2022-08-05T08:21:00.743Z,1.22
2022-08-05T08:21:00.754Z,1.22
2022-08-05T08:21:19.602Z,1.66
2022-08-05T08:22:17.936Z,1.66
2022-08-05T08:24:07.609Z,1.45
2022-08-05T08:24:16.321Z,1.37
2022-08-05T08:25:18.139Z,1.37
2022-08-05T08:26:13.980Z,1.04
2022-08-05T08:27:09.475Z,1.04
2022-08-05T08:28:58.963Z,1.19
2022-08-05T08:30:18.382Z,1.79
2022-08-05T08:30:37.966Z,1.79
2022-08-05T08:31:19.572Z,1.72
2022-08-05T08:32:13.044Z,1.28
2022-08-05T08:33:15.781Z,1.28
2022-08-05T08:34:16.910Z,1.35
2022-08-05T08:35:15.799Z,1.35
2022-08-05T08:36:47.498Z,1.52
2022-08-05T08:37:20.849Z,1.52
2022-08-05T08:38:11.773Z,1.52
2022-08-05T08:39:17.705Z,1.38
2022-08-05T08:40:12.768Z,1.49
2022-08-05T08:41:16.244Z,2
2022-08-05T08:42:46.977Z,1.31
2022-08-05T08:45:25.974Z,1.42
2022-08-05T08:45:29.587Z,1.24
2022-08-05T08:45:29.833Z,1.42
2022-08-05T08:46:18.352Z,1.24
2022-08-05T08:48:12.974Z,1.26
2022-08-05T08:49:08.157Z,1.47
2022-08-05T08:50:52.689Z,1.16
2022-08-05T08:51:04.427Z,2.31
2022-08-05T08:52:06.256Z,1.48
2022-08-05T08:52:15.499Z,1.48
2022-08-05T08:53:14.677Z,1.97
2022-08-05T08:54:15.840Z,1.07
2022-08-05T08:55:19.419Z,2.25
2022-08-05T08:56:14.945Z,1.81
2022-08-05T08:57:05.209Z,1.81
2022-08-05T08:58:15.234Z,1.47
2022-08-05T08:59:21.407Z,1.47
2022-08-05T09:00:19.367Z,1.32
2022-08-05T09:01:19.360Z,1.32
2022-08-05T09:02:18.723Z,1.59
2022-08-05T09:03:21.252Z,1.93
2022-08-05T09:04:13.938Z,2.08
2022-08-05T09:05:38.046Z,1.46
2022-08-05T09:06:24.119Z,1.29
2022-08-05T09:07:28.701Z,1.29
2022-08-05T09:08:17.079Z,1.79
2022-08-05T09:09:15.740Z,1.36
2022-08-05T09:10:13.595Z,1.25
2022-08-05T09:11:16.218Z,1.25
2022-08-05T09:12:26.997Z,1.89
2022-08-05T09:13:15.151Z,1.89
2022-08-05T09:15:06.310Z,1.41
2022-08-05T09:15:17.143Z,1.32
2022-08-05T09:16:19.112Z,1.32
2022-08-05T09:17:41.548Z,1.32
2022-08-05T09:18:15.632Z,1.92
2022-08-05T09:19:14.602Z,2.14
2022-08-05T09:20:20.932Z,2.14
2022-08-05T09:22:13.558Z,1.34
2022-08-05T09:22:31.409Z,1.88
2022-08-05T09:23:22.060Z,1.39
2022-08-05T09:24:12.546Z,1.39
2022-08-05T09:26:00.436Z,1.59
2022-08-05T09:26:22.976Z,1.59
2022-08-05T09:28:03.444Z,1.44
2022-08-05T09:28:23.039Z,1.44
2022-08-05T09:29:16.119Z,1.44
2022-08-05T09:30:18.645Z,1.44
2022-08-05T09:32:45.880Z,1.76
2022-08-05T09:32:47.639Z,1.42
2022-08-05T09:33:17.352Z,1.42
2022-08-05T09:34:15.835Z,1.42
2022-08-05T09:35:29.345Z,1.29
2022-08-05T09:36:18.305Z,1.42
2022-08-05T09:37:18.874Z,1.42
2022-08-05T09:38:27.670Z,1.53
2022-08-05T09:39:24.097Z,1.91
2022-08-05T09:40:11.029Z,1.91
2022-08-05T09:41:18.277Z,1.44
2022-08-05T09:42:23.746Z,1.44
2022-08-05T09:43:12.915Z,1.44
2022-08-05T09:44:13.262Z,1.58
2022-08-05T09:46:05.642Z,1.51
2022-08-05T09:46:15.558Z,1.51
2022-08-05T09:47:17.450Z,1.51
2022-08-05T09:48:10.956Z,1.14
2022-08-05T09:49:21.536Z,1.35
2022-08-05T09:50:12.936Z,1.35
2022-08-05T09:51:17.173Z,0.96
2022-08-05T09:52:13.545Z,1.52
2022-08-05T09:53:53.335Z,1.25
2022-08-05T09:54:06.984Z,1.25
2022-08-05T09:56:02.940Z,1.55
2022-08-05T09:56:21.096Z,2.13
2022-08-05T09:57:25.675Z,2.13
2022-08-05T09:58:16.352Z,2.13
2022-08-05T09:59:18.917Z,1.6
2022-08-05T10:00:12.934Z,1.25
2022-08-05T10:01:34.146Z,1.25
2022-08-05T10:02:11.569Z,1.32
2022-08-05T10:03:14.002Z,1.18
2022-08-05T10:04:15.988Z,1.18
2022-08-05T10:05:12.297Z,1.06
2022-08-05T10:06:17.961Z,1.31
2022-08-05T10:07:59.414Z,1.75
2022-08-05T10:08:42.407Z,1.75
2022-08-05T10:09:29.379Z,0.84
2022-08-05T10:10:17.885Z,1.12
2022-08-05T10:11:15.869Z,1.12
2022-08-05T10:12:30.852Z,1.45
2022-08-05T10:13:11.941Z,1.45
2022-08-05T10:14:16.644Z,1.19
2022-08-05T10:15:16.358Z,1.39
2022-08-05T10:16:14.490Z,1.01
2022-08-05T10:17:43.413Z,1.01
2022-08-05T10:18:16.629Z,1.75
2022-08-05T10:19:12.032Z,1.25
2022-08-05T10:20:20.294Z,1.32
2022-08-05T10:21:18.576Z,1.29
2022-08-05T10:22:34.934Z,1.29
2022-08-05T10:23:59.391Z,1.38
2022-08-05T10:24:13.727Z,1.31
2022-08-05T10:25:16.588Z,1.19
2022-08-05T10:26:16.240Z,1.24
2022-08-05T10:27:18.753Z,1.08
2022-08-05T10:28:29.045Z,1.08
2022-08-05T10:30:07.318Z,1.04
2022-08-05T10:32:55.251Z,1.04
2022-08-05T10:33:01.580Z,1.33
2022-08-05T10:33:02.862Z,1.24
2022-08-05T10:34:19.047Z,1.04
2022-08-05T10:35:12.933Z,1.04
2022-08-05T10:36:14.461Z,1.21
2022-08-05T10:37:15.705Z,1.11
2022-08-05T10:38:15.438Z,1.16
2022-08-05T10:40:04.416Z,1.16
2022-08-05T10:40:19.843Z,1.36
2022-08-05T10:41:15.747Z,1.03
2022-08-05T10:42:13.488Z,1.03
2022-08-05T10:43:14.556Z,1.03
2022-08-05T10:44:09.638Z,0.86
2022-08-05T10:45:40.585Z,1.11
2022-08-05T10:46:12.584Z,1.11
2022-08-05T10:47:31.228Z,1.34
2022-08-05T10:48:40.718Z,1.34
2022-08-05T10:49:18.839Z,1.18
2022-08-05T10:50:38.350Z,1.18
2022-08-05T10:51:28.603Z,1.36
2022-08-05T10:52:15.826Z,1.22
2022-08-05T10:53:13.007Z,1.14
2022-08-05T10:54:28.899Z,1.14
2022-08-05T10:55:18.473Z,1.42
2022-08-05T10:56:27.249Z,1.42
2022-08-05T10:57:16.637Z,1.56
2022-08-05T10:58:17.935Z,1.44
2022-08-05T11:00:13.511Z,1.17
2022-08-05T11:00:20.796Z,1.46
2022-08-05T11:01:13.571Z,1.46
2022-08-05T11:02:35.149Z,0.96
2022-08-05T11:03:28.425Z,1.54
2022-08-05T11:04:11.288Z,1.12
2022-08-05T11:05:12.513Z,1.73
2022-08-05T11:06:18.077Z,1.73
2022-08-05T11:07:13.327Z,1.73
2022-08-05T11:08:39.305Z,1.75
2022-08-05T11:09:24.364Z,1.04
2022-08-05T11:10:13.890Z,1.04
2022-08-05T11:11:18.847Z,1.4
2022-08-05T11:12:13.882Z,1.4
2022-08-05T11:13:17.880Z,1.01
2022-08-05T11:14:15.343Z,1.01
2022-08-05T11:15:22.104Z,1.22
2022-08-05T11:16:16.339Z,1.34
2022-08-05T11:18:01.795Z,1.25
2022-08-05T11:18:14.126Z,1.25
2022-08-05T11:20:17.673Z,1.26
2022-08-05T11:20:20.652Z,1.26
2022-08-05T11:21:14.266Z,1.26
2022-08-05T11:22:16.599Z,1.18
2022-08-05T11:23:12.641Z,1.69
2022-08-05T11:24:32.295Z,2.65
2022-08-05T11:26:08.547Z,1.47
2022-08-05T11:26:27.837Z,1.47
2022-08-05T11:27:10.542Z,1.47
2022-08-05T11:28:19.398Z,1.11
2022-08-05T11:29:16.553Z,1.36
2022-08-05T11:30:14.321Z,1.21
2022-08-05T11:32:01.136Z,1.21
2022-08-05T11:32:12.968Z,1.19
2022-08-05T11:33:23.355Z,1.19
2022-08-05T11:34:14.835Z,1.17
2022-08-05T11:35:17.602Z,1.63
2022-08-05T11:36:11.125Z,1.38
2022-08-05T11:38:33.799Z,1.3
2022-08-05T11:38:45.567Z,0.98
2022-08-05T11:40:20.465Z,0.89
2022-08-05T11:42:02.140Z,1.17
2022-08-05T11:42:20.466Z,1.48
2022-08-05T11:43:15.818Z,1.56
2022-08-05T11:44:21.717Z,1.17
2022-08-05T11:46:15.914Z,1.17
2022-08-05T11:46:30.935Z,0.76
2022-08-05T11:47:21.602Z,1.28
2022-08-05T11:48:16.731Z,1.28
2022-08-05T11:49:16.799Z,0.74
2022-08-05T11:50:16.547Z,0.66
2022-08-05T11:51:48.495Z,1.13
2022-08-05T11:52:15.331Z,1.13
2022-08-05T11:53:12.257Z,0.92
2022-08-05T11:54:16.013Z,0.73
2022-08-05T11:55:15.730Z,1.19
2022-08-05T11:56:15.641Z,1.19
2022-08-05T11:57:27.002Z,1.41
2022-08-05T11:58:19.623Z,1.41
2022-08-05T11:59:15.988Z,1.41
2022-08-05T12:00:14.426Z,0.82
2022-08-05T12:01:13.151Z,0.62
2022-08-05T12:02:32.917Z,0.62
2022-08-05T12:03:24.245Z,1.19
2022-08-05T12:04:15.736Z,0.84
2022-08-05T12:05:20.541Z,0.64
2022-08-05T12:06:12.912Z,1.09
2022-08-05T12:07:12.491Z,1.09
2022-08-05T12:08:20.487Z,0.85
2022-08-05T12:09:22.002Z,0.85
2022-08-05T12:10:11.678Z,0.88
2022-08-05T12:11:22.581Z,0.79
2022-08-05T12:12:20.900Z,0.94
2022-08-05T12:13:28.241Z,0.94
2022-08-05T12:14:13.330Z,0.94
2022-08-05T12:15:19.111Z,0.94
2022-08-05T12:16:17.792Z,0.49
2022-08-05T12:18:12.460Z,0.55
2022-08-05T12:18:14.654Z,0.55
2022-08-05T12:20:33.105Z,0.55
2022-08-05T12:20:33.141Z,0.52
2022-08-05T12:21:12.370Z,0.96
2022-08-05T12:22:22.144Z,0.96
2022-08-05T12:23:15.402Z,0.86
2022-08-05T12:24:10.642Z,0.86
2022-08-05T12:25:16.642Z,0.55
2022-08-05T12:26:13.119Z,0.88
2022-08-05T12:27:33.007Z,0.64
2022-08-05T12:28:17.821Z,0.64
2022-08-05T12:29:05.620Z,0.86
2022-08-05T12:30:17.343Z,0.76
2022-08-05T12:31:41.465Z,1.12
2022-08-05T12:32:14.264Z,1.12
2022-08-05T12:33:36.137Z,0.88
2022-08-05T12:34:23.660Z,0.88
2022-08-05T12:35:10.557Z,0.88
2022-08-05T12:36:12.122Z,0.88
2022-08-05T12:37:23.751Z,0.59
2022-08-05T12:38:17.224Z,0.59
2022-08-05T12:39:08.945Z,0.88
2022-08-05T12:40:28.770Z,0.85
2022-08-05T12:41:16.109Z,0.85
2022-08-05T12:42:16.821Z,0.75
2022-08-05T12:43:22.953Z,0.92
2022-08-05T12:44:04.998Z,0.92
2022-08-05T12:45:17.541Z,0.58
2022-08-05T12:46:14.540Z,0.58
2022-08-05T12:47:17.009Z,0.56
2022-08-05T12:48:34.124Z,0.95
2022-08-05T12:49:16.110Z,0.95
2022-08-05T12:50:12.617Z,0.86
2022-08-05T12:52:19.839Z,0.86
2022-08-05T12:52:29.012Z,1.02
2022-08-05T12:53:17.275Z,1.02
2022-08-05T12:54:23.277Z,1.15
2022-08-05T12:55:16.038Z,0.6
2022-08-05T12:56:37.513Z,0.71
2022-08-05T12:57:15.022Z,0.69
2022-08-05T12:58:59.735Z,0.63
2022-08-05T12:59:20.899Z,0.56
2022-08-05T13:02:08.008Z,0.56
2022-08-05T13:02:08.219Z,0.48
2022-08-05T13:03:16.916Z,0.42
2022-08-05T13:04:12.306Z,0.59
2022-08-05T13:05:16.605Z,0.59
2022-08-05T13:06:13.815Z,0.58
2022-08-05T13:07:57.991Z,0.58
2022-08-05T13:08:11.779Z,0.87
2022-08-05T13:09:28.161Z,0.46
2022-08-05T13:10:14.968Z,0.46
2022-08-05T13:11:11.044Z,0.46
2022-08-05T13:12:18.164Z,0.51
2022-08-05T13:13:11.071Z,0.59
2022-08-05T13:14:19.304Z,0.76
2022-08-05T13:15:24.018Z,0.76
2022-08-05T13:16:12.760Z,0.88
2022-08-05T13:17:12.401Z,0.88
2022-08-05T13:18:10.688Z,1.31
2022-08-05T13:19:11.611Z,1.26
2022-08-05T13:20:23.713Z,0.71
2022-08-05T13:21:11.499Z,0.71
2022-08-05T13:22:27.837Z,0.71
2022-08-05T13:23:10.035Z,1.04
2022-08-05T13:24:10.993Z,1.04
2022-08-05T13:25:22.116Z,0.71
2022-08-05T13:26:13.380Z,0.71